Terminal Aerodrome Forecast
Issued by NWS Green Bay, WI

Home | Current Version | Previous Version | Text Only | Print | Product List | Glossary On
Versions: 1 2 3 4 5 6 7 8 9 10 11 12 13 14 15 16 17 18 19 20 21 22 23 24 25 26 27 28 29 30 31
000
FTUS43 KGRB 201700
TAFGRB
TAF
KGRB 201721Z 2018/2118 19007KT P6SM -SHRA SCT040 OVC070
      TEMPO 2018/2022 4SM SHRA BR BKN040
     FM202200 17009KT P6SM -SHRA SCT035 OVC090
     FM210200 12005KT P6SM -SHRA SCT030 OVC060
     FM210700 06005KT 6SM -SHRA BR SCT025 OVC050
      TEMPO 2109/2113 3SM SHRA BR BKN025
     FM211500 VRB03KT 5SM -SHRA BR SCT030 OVC060=

USA.gov is the U.S. government's official web portal to all federal, state and local government web resources and services.